createdAt,value
2023-05-13T00:00:18.436Z,93869.45
2023-05-13T00:01:11.700Z,93870.77
2023-05-13T00:01:44.987Z,93876.36
2023-05-13T00:02:18.746Z,93875.52
2023-05-13T00:02:52.544Z,93873.73
2023-05-13T00:03:26.183Z,93872.92
2023-05-13T00:03:59.485Z,93874.30
2023-05-13T00:04:32.784Z,93874.61
2023-05-13T00:05:06.353Z,93872.56
2023-05-13T00:05:40.528Z,93872.27
2023-05-13T00:06:14.017Z,93873.10
2023-05-13T00:06:47.596Z,93873.38
2023-05-13T00:07:20.930Z,93871.73
2023-05-13T00:07:54.181Z,93870.94
2023-05-13T00:08:27.463Z,93871.83
2023-05-13T00:09:00.863Z,93871.70
2023-05-13T00:09:34.135Z,93870.73
2023-05-13T00:10:08.287Z,93872.92
2023-05-13T00:10:41.651Z,93870.60
2023-05-13T00:11:16.920Z,93869.59
2023-05-13T00:11:53.526Z,93870.36
2023-05-13T00:12:28.556Z,93872.83
2023-05-13T00:13:02.412Z,93872.70
2023-05-13T00:13:35.672Z,93872.09
2023-05-13T00:14:10.921Z,93868.02
2023-05-13T00:14:44.118Z,93868.33
2023-05-13T00:15:17.340Z,93869.42
2023-05-13T00:15:50.794Z,93868.69
2023-05-13T00:16:27.957Z,93869.28
2023-05-13T00:17:04.492Z,93871.63
2023-05-13T00:17:38.000Z,93866.89
2023-05-13T00:18:11.437Z,93867.49
2023-05-13T00:18:44.858Z,93865.91
2023-05-13T00:19:18.172Z,93869.63
2023-05-13T00:19:51.377Z,93866.20
2023-05-13T00:20:24.965Z,93868.68
2023-05-13T00:20:58.227Z,93870.28
2023-05-13T00:21:32.336Z,93868.02
2023-05-13T00:22:05.711Z,93870.71
2023-05-13T00:22:38.917Z,93864.70
2023-05-13T00:23:12.185Z,93867.58
2023-05-13T00:23:45.380Z,93863.53
2023-05-13T00:24:18.675Z,93868.05
2023-05-13T00:24:51.905Z,93863.46
2023-05-13T00:25:25.108Z,93863.87
2023-05-13T00:25:58.775Z,93862.00
2023-05-13T00:26:31.938Z,93860.55
2023-05-13T00:27:05.430Z,93865.19
2023-05-13T00:27:38.972Z,93861.91
2023-05-13T00:28:15.171Z,93864.70
2023-05-13T00:28:48.479Z,93862.52
2023-05-13T00:29:21.846Z,93861.11
2023-05-13T00:29:55.158Z,93863.48
2023-05-13T00:30:28.377Z,93863.25
2023-05-13T00:31:01.607Z,93859.73
2023-05-13T00:31:35.095Z,93860.04
2023-05-13T00:32:08.385Z,93860.44
2023-05-13T00:32:41.836Z,93860.38
2023-05-13T00:33:15.471Z,93857.33
2023-05-13T00:33:48.745Z,93859.23
2023-05-13T00:34:21.962Z,93856.10
2023-05-13T00:34:55.217Z,93857.13
2023-05-13T00:35:28.600Z,93854.41
2023-05-13T00:36:02.358Z,93857.09
2023-05-13T00:36:37.053Z,93852.29
2023-05-13T00:37:11.835Z,93853.86
2023-05-13T00:37:45.241Z,93855.80
2023-05-13T00:38:18.394Z,93854.50
2023-05-13T00:38:52.017Z,93856.25
2023-05-13T00:39:25.239Z,93859.33
2023-05-13T00:39:58.424Z,93856.09
2023-05-13T00:40:32.069Z,93860.36
2023-05-13T00:41:06.070Z,93857.13
2023-05-13T00:41:39.441Z,93860.57
2023-05-13T00:42:13.919Z,93859.95
2023-05-13T00:42:47.248Z,93858.11
2023-05-13T00:43:20.581Z,93857.68
2023-05-13T00:43:59.441Z,93857.58
2023-05-13T00:44:32.973Z,93856.98
2023-05-13T00:45:06.858Z,93854.34
2023-05-13T00:45:40.240Z,93855.70
2023-05-13T00:46:14.967Z,93855.14
2023-05-13T00:46:49.764Z,93855.38
2023-05-13T00:47:23.224Z,93857.20
2023-05-13T00:47:56.562Z,93853.59
2023-05-13T00:48:30.200Z,93858.11
2023-05-13T00:49:05.193Z,93852.92
2023-05-13T00:49:38.730Z,93853.14
2023-05-13T00:50:14.047Z,93853.55
2023-05-13T00:50:47.769Z,93851.84
2023-05-13T00:51:21.201Z,93854.11
2023-05-13T00:51:55.446Z,93853.41
2023-05-13T00:52:29.451Z,93855.71
2023-05-13T00:53:04.129Z,93852.98
2023-05-13T00:53:39.343Z,93854.43
2023-05-13T00:54:12.672Z,93853.03
2023-05-13T00:54:45.894Z,93851.80
2023-05-13T00:55:19.539Z,93851.91
2023-05-13T00:55:52.785Z,93851.50
2023-05-13T00:56:27.220Z,93853.73
2023-05-13T00:57:00.962Z,93854.33
2023-05-13T00:57:34.986Z,93851.91
2023-05-13T00:58:08.535Z,93852.90
2023-05-13T00:58:41.794Z,93850.27
2023-05-13T00:59:15.101Z,93850.93
2023-05-13T00:59:48.386Z,93849.67
2023-05-13T01:00:22.067Z,93850.17
2023-05-13T01:01:20.694Z,93850.34
2023-05-13T01:02:16.962Z,93849.83
2023-05-13T01:03:13.096Z,93851.66
2023-05-13T01:03:51.358Z,93848.47
2023-05-13T01:04:43.031Z,93849.84
2023-05-13T01:05:34.523Z,93851.23
2023-05-13T01:06:14.005Z,93850.22
2023-05-13T01:07:02.058Z,93849.77
2023-05-13T01:07:56.347Z,93850.23
2023-05-13T01:08:52.209Z,93852.34
2023-05-13T01:09:32.109Z,93854.19
2023-05-13T01:10:33.830Z,93852.27
2023-05-13T01:11:17.888Z,93850.77
2023-05-13T01:11:53.842Z,93846.82
2023-05-13T01:12:41.257Z,93849.83
2023-05-13T01:13:19.213Z,93847.96
2023-05-13T01:14:03.406Z,93847.86
2023-05-13T01:14:49.411Z,93851.25
2023-05-13T01:15:27.273Z,93849.63
2023-05-13T01:16:07.464Z,93850.73
2023-05-13T01:16:50.894Z,93846.20
2023-05-13T01:17:34.390Z,93852.05
2023-05-13T01:18:15.446Z,93850.20
2023-05-13T01:19:01.991Z,93852.21
2023-05-13T01:20:03.772Z,93853.41
2023-05-13T01:20:41.231Z,93856.71
2023-05-13T01:21:14.633Z,93857.90
2023-05-13T01:21:55.023Z,93856.42
2023-05-13T01:22:28.532Z,93858.98
2023-05-13T01:23:04.333Z,93855.05
2023-05-13T01:23:40.791Z,93855.39
2023-05-13T01:24:14.112Z,93857.17
2023-05-13T01:24:47.423Z,93857.04
2023-05-13T01:25:20.732Z,93860.73
2023-05-13T01:25:53.949Z,93860.09
2023-05-13T01:26:27.309Z,93863.66
2023-05-13T01:27:01.516Z,93858.63
2023-05-13T01:27:35.223Z,93858.38
2023-05-13T01:28:09.573Z,93861.30
2023-05-13T01:28:43.099Z,93858.20
2023-05-13T01:29:17.142Z,93860.40
2023-05-13T01:29:51.822Z,93857.59
2023-05-13T01:30:27.754Z,93859.06
2023-05-13T01:31:01.354Z,93856.02
2023-05-13T01:31:35.347Z,93859.42
2023-05-13T01:32:11.102Z,93855.48
2023-05-13T01:32:45.043Z,93857.50
2023-05-13T01:33:19.047Z,93855.77
2023-05-13T01:33:53.332Z,93855.34
2023-05-13T01:34:28.009Z,93858.27
2023-05-13T01:35:03.455Z,93853.35
2023-05-13T01:35:37.146Z,93855.21
2023-05-13T01:36:10.763Z,93853.13
2023-05-13T01:36:44.602Z,93855.74
2023-05-13T01:37:18.717Z,93854.84
2023-05-13T01:37:53.256Z,93854.56
2023-05-13T01:38:28.112Z,93850.86
2023-05-13T01:39:03.519Z,93851.94
2023-05-13T01:39:40.448Z,93853.05
2023-05-13T01:40:31.030Z,93850.45
2023-05-13T01:41:08.544Z,93849.23
2023-05-13T01:41:42.392Z,93849.67
2023-05-13T01:42:16.329Z,93849.73
2023-05-13T01:42:50.057Z,93853.47
2023-05-13T01:43:23.410Z,93849.32
2023-05-13T01:43:57.952Z,93854.25
2023-05-13T01:44:31.588Z,93852.50
2023-05-13T01:45:07.226Z,93848.79
2023-05-13T01:45:41.580Z,93852.61
2023-05-13T01:46:15.909Z,93852.71
2023-05-13T01:46:50.719Z,93850.08
2023-05-13T01:47:24.779Z,93849.19
2023-05-13T01:47:58.205Z,93853.73
2023-05-13T01:48:31.570Z,93853.01
2023-05-13T01:50:45.014Z,93856.17
2023-05-13T01:51:18.358Z,93859.40
2023-05-13T01:51:52.024Z,93861.78
2023-05-13T01:52:25.631Z,93855.77
2023-05-13T01:52:59.392Z,93855.76
2023-05-13T01:53:33.302Z,93852.34
2023-05-13T01:54:06.534Z,93854.40
2023-05-13T01:54:40.316Z,93851.53
2023-05-13T01:55:16.233Z,93852.10
2023-05-13T01:55:50.135Z,93848.45
2023-05-13T01:56:23.931Z,93848.18
2023-05-13T01:56:57.348Z,93847.52
2023-05-13T01:57:30.696Z,93847.21
2023-05-13T01:58:04.262Z,93850.70
2023-05-13T01:58:37.632Z,93851.64
2023-05-13T01:59:11.393Z,93851.42
2023-05-13T01:59:44.828Z,93854.71
2023-05-13T02:00:18.982Z,93850.73
2023-05-13T02:00:55.329Z,93851.99
2023-05-13T02:01:28.676Z,93854.04
2023-05-13T02:02:02.183Z,93855.20
2023-05-13T02:02:36.094Z,93852.44
2023-05-13T02:03:09.658Z,93853.80
2023-05-13T02:03:43.209Z,93852.43
2023-05-13T02:04:17.083Z,93853.44
2023-05-13T02:04:50.810Z,93853.67
2023-05-13T02:05:24.143Z,93853.10
2023-05-13T02:05:57.623Z,93855.95
2023-05-13T02:06:32.340Z,93854.05
2023-05-13T02:07:05.797Z,93850.20
2023-05-13T02:07:39.124Z,93851.20
2023-05-13T02:08:12.444Z,93848.98
2023-05-13T02:08:45.734Z,93850.22
2023-05-13T02:09:19.559Z,93850.58
2023-05-13T02:09:59.632Z,93854.63
2023-05-13T02:10:32.859Z,93852.98
2023-05-13T02:11:07.126Z,93852.20
2023-05-13T02:11:40.981Z,93855.80
2023-05-13T02:12:14.280Z,93854.80
2023-05-13T02:12:48.145Z,93854.14
2023-05-13T02:13:21.477Z,93858.85
2023-05-13T02:13:54.696Z,93855.67
2023-05-13T02:14:28.053Z,93857.00
2023-05-13T02:15:01.510Z,93855.84
2023-05-13T02:15:37.280Z,93857.98
2023-05-13T02:16:14.950Z,93861.25
2023-05-13T02:16:48.348Z,93858.06
2023-05-13T02:17:22.783Z,93860.93
2023-05-13T02:17:56.334Z,93862.02
2023-05-13T02:18:29.672Z,93861.02
2023-05-13T02:19:03.172Z,93860.70
2023-05-13T02:19:36.648Z,93859.71
2023-05-13T02:20:10.812Z,93857.34
2023-05-13T02:20:44.534Z,93853.85
2023-05-13T02:21:18.280Z,93857.25
2023-05-13T02:21:51.677Z,93856.89
2023-05-13T02:22:25.227Z,93857.52
2023-05-13T02:22:58.476Z,93856.84
2023-05-13T02:23:31.732Z,93857.11
2023-05-13T02:24:05.366Z,93858.26
2023-05-13T02:24:40.597Z,93858.14
2023-05-13T02:25:14.649Z,93859.13
2023-05-13T02:25:47.817Z,93856.17
2023-05-13T02:26:21.158Z,93860.77
2023-05-13T02:26:54.726Z,93863.09
2023-05-13T02:27:28.175Z,93858.77
2023-05-13T02:28:01.724Z,93861.91
2023-05-13T02:28:35.276Z,93859.59
2023-05-13T02:29:08.738Z,93864.71
2023-05-13T02:29:42.306Z,93862.89
2023-05-13T02:30:15.677Z,93862.98
2023-05-13T02:30:50.504Z,93860.27
2023-05-13T02:31:23.933Z,93863.77
2023-05-13T02:31:57.326Z,93863.25
2023-05-13T02:32:30.716Z,93861.94
2023-05-13T02:33:04.117Z,93860.45
2023-05-13T02:33:37.367Z,93862.81
2023-05-13T02:34:10.803Z,93862.06
2023-05-13T02:34:44.136Z,93859.60
2023-05-13T02:35:17.425Z,93864.88
2023-05-13T02:35:50.735Z,93860.83
2023-05-13T02:36:24.225Z,93864.71
2023-05-13T02:36:57.517Z,93865.19
2023-05-13T02:37:31.111Z,93862.73
2023-05-13T02:38:09.955Z,93863.23
2023-05-13T02:38:43.166Z,93866.05
2023-05-13T02:39:16.657Z,93864.95
2023-05-13T02:39:50.104Z,93860.95
2023-05-13T02:40:24.708Z,93861.88
2023-05-13T02:40:58.012Z,93861.71
2023-05-13T02:41:32.575Z,93864.23
2023-05-13T02:42:06.373Z,93860.48
2023-05-13T02:42:39.632Z,93863.90
2023-05-13T02:43:13.287Z,93862.76
2023-05-13T02:43:51.702Z,93862.41
2023-05-13T02:44:25.169Z,93863.75
2023-05-13T02:44:58.751Z,93862.56
2023-05-13T02:45:33.230Z,93862.55
2023-05-13T02:46:06.979Z,93860.00
2023-05-13T02:46:40.490Z,93860.71
2023-05-13T02:47:13.840Z,93862.55
2023-05-13T02:47:47.362Z,93859.99
2023-05-13T02:48:20.864Z,93858.37
2023-05-13T02:48:54.383Z,93860.66
2023-05-13T02:49:27.888Z,93857.96
2023-05-13T02:50:01.331Z,93859.39
2023-05-13T02:50:34.823Z,93855.89
2023-05-13T02:51:09.739Z,93858.17
2023-05-13T02:51:43.460Z,93858.92
2023-05-13T02:52:16.863Z,93858.55
2023-05-13T02:52:50.303Z,93856.52
2023-05-13T02:53:24.331Z,93858.33
2023-05-13T02:54:04.449Z,93860.95
2023-05-13T02:54:37.865Z,93860.42
2023-05-13T02:55:12.414Z,93862.11
2023-05-13T02:55:46.139Z,93859.23
2023-05-13T02:56:19.600Z,93860.55
2023-05-13T02:56:52.861Z,93858.51
2023-05-13T02:57:26.071Z,93862.25
2023-05-13T02:57:59.376Z,93857.20
2023-05-13T02:58:32.790Z,93856.44
2023-05-13T02:59:06.282Z,93859.27
2023-05-13T02:59:39.653Z,93858.61
2023-05-13T03:00:13.561Z,93856.83
2023-05-13T03:00:46.953Z,93854.11
2023-05-13T03:01:20.555Z,93852.17
2023-05-13T03:01:53.837Z,93855.16
2023-05-13T03:02:28.431Z,93854.64
2023-05-13T03:03:02.016Z,93853.56
2023-05-13T03:03:35.747Z,93851.60
2023-05-13T03:04:09.058Z,93849.09
2023-05-13T03:04:42.360Z,93853.61
2023-05-13T03:05:15.988Z,93851.22
2023-05-13T03:05:49.304Z,93850.27
2023-05-13T03:06:22.555Z,93854.84
2023-05-13T03:06:55.929Z,93852.58
2023-05-13T03:07:29.225Z,93853.42
2023-05-13T03:08:02.569Z,93851.85
2023-05-13T03:08:36.359Z,93854.59
2023-05-13T03:09:09.647Z,93850.07
2023-05-13T03:09:42.916Z,93851.08
2023-05-13T03:10:16.288Z,93850.30
2023-05-13T03:10:49.706Z,93852.37
2023-05-13T03:11:23.096Z,93847.94
2023-05-13T03:11:56.417Z,93850.36
2023-05-13T03:12:29.977Z,93848.39
2023-05-13T03:13:03.422Z,93849.66
2023-05-13T03:13:36.662Z,93846.53
2023-05-13T03:14:09.942Z,93852.95
2023-05-13T03:14:44.758Z,93849.89
2023-05-13T03:15:18.182Z,93850.34
2023-05-13T03:15:51.581Z,93851.34
2023-05-13T03:16:25.010Z,93853.27
2023-05-13T03:16:58.267Z,93854.46
2023-05-13T03:17:32.274Z,93853.90
2023-05-13T03:18:05.710Z,93855.40
2023-05-13T03:18:39.130Z,93858.07
2023-05-13T03:19:12.779Z,93855.45
2023-05-13T03:19:46.124Z,93859.03
2023-05-13T03:20:19.895Z,93855.79
2023-05-13T03:20:53.492Z,93857.98
2023-05-13T03:21:26.850Z,93859.25
2023-05-13T03:22:00.252Z,93855.73
2023-05-13T03:22:33.511Z,93855.27
2023-05-13T03:23:06.924Z,93856.73
2023-05-13T03:23:40.496Z,93855.27
2023-05-13T03:24:13.880Z,93854.73
2023-05-13T03:24:47.318Z,93853.02
2023-05-13T03:25:20.894Z,93854.16
2023-05-13T03:25:58.045Z,93852.58
2023-05-13T03:26:31.471Z,93855.29
2023-05-13T03:27:05.075Z,93853.84
2023-05-13T03:27:39.055Z,93854.65
2023-05-13T03:28:12.388Z,93855.02
2023-05-13T03:28:48.749Z,93855.96
2023-05-13T03:29:22.213Z,93856.70
2023-05-13T03:29:55.725Z,93856.77
2023-05-13T03:30:30.058Z,93855.57
2023-05-13T03:31:10.444Z,93853.93
2023-05-13T03:31:45.729Z,93856.81
2023-05-13T03:32:19.545Z,93857.66
2023-05-13T03:32:53.146Z,93860.91
2023-05-13T03:33:26.662Z,93857.96
2023-05-13T03:33:59.961Z,93857.92
2023-05-13T03:34:33.947Z,93858.36
2023-05-13T03:35:07.611Z,93857.73
2023-05-13T03:35:41.274Z,93853.85
2023-05-13T03:36:14.999Z,93855.55
2023-05-13T03:36:48.427Z,93856.77
2023-05-13T03:37:21.793Z,93850.78
2023-05-13T03:37:55.329Z,93855.92
2023-05-13T03:38:29.362Z,93856.55
2023-05-13T03:39:02.837Z,93859.13
2023-05-13T03:39:36.631Z,93857.02
2023-05-13T03:40:10.492Z,93857.96
2023-05-13T03:40:44.015Z,93856.14
2023-05-13T03:41:17.809Z,93856.52
2023-05-13T03:41:51.602Z,93859.45
2023-05-13T03:42:25.112Z,93857.05
2023-05-13T03:42:59.111Z,93859.99
2023-05-13T03:43:32.793Z,93860.31
2023-05-13T03:44:08.030Z,93858.17
2023-05-13T03:44:41.597Z,93860.27
2023-05-13T03:45:15.092Z,93857.64
2023-05-13T03:45:49.100Z,93860.37
2023-05-13T03:46:27.422Z,93859.92
2023-05-13T03:47:01.834Z,93860.45
2023-05-13T03:47:35.783Z,93861.84
2023-05-13T03:48:11.056Z,93858.38
2023-05-13T03:48:45.943Z,93859.91
2023-05-13T03:49:19.387Z,93861.81
2023-05-13T03:49:52.717Z,93863.13
2023-05-13T03:50:26.286Z,93863.23
2023-05-13T03:50:59.806Z,93863.46
2023-05-13T03:51:34.547Z,93861.36
2023-05-13T03:52:10.628Z,93863.80
2023-05-13T03:52:46.256Z,93866.04
2023-05-13T03:53:20.726Z,93865.86
2023-05-13T03:53:54.282Z,93864.33
2023-05-13T03:54:27.672Z,93867.80
2023-05-13T03:55:00.964Z,93870.33
2023-05-13T03:55:34.486Z,93866.96
2023-05-13T03:56:07.893Z,93865.44
2023-05-13T03:56:41.503Z,93868.12
2023-05-13T03:57:16.642Z,93870.02
2023-05-13T03:57:50.292Z,93868.46
2023-05-13T03:58:25.048Z,93868.58
2023-05-13T03:58:58.352Z,93867.14
2023-05-13T03:59:31.844Z,93865.77
2023-05-13T04:00:05.701Z,93867.98
2023-05-13T04:00:50.774Z,93868.88
2023-05-13T04:01:24.066Z,93867.02
2023-05-13T04:01:57.378Z,93867.02
2023-05-13T04:02:30.724Z,93868.02
2023-05-13T04:03:04.699Z,93866.98
2023-05-13T04:03:38.190Z,93866.23
2023-05-13T04:04:11.456Z,93869.52
2023-05-13T04:04:44.751Z,93870.89
2023-05-13T04:05:18.210Z,93869.06
2023-05-13T04:05:52.696Z,93869.27
2023-05-13T04:06:26.086Z,93872.98
2023-05-13T04:06:59.348Z,93868.02
2023-05-13T04:07:32.539Z,93865.17
2023-05-13T04:08:06.065Z,93867.48
2023-05-13T04:08:39.608Z,93867.85
2023-05-13T04:09:12.882Z,93862.86
2023-05-13T04:09:46.187Z,93866.16
2023-05-13T04:10:19.710Z,93866.05
2023-05-13T04:10:53.501Z,93869.23
2023-05-13T04:11:26.799Z,93869.58
2023-05-13T04:12:01.163Z,93865.95
2023-05-13T04:12:34.596Z,93865.63
2023-05-13T04:13:08.399Z,93869.46
2023-05-13T04:13:46.136Z,93867.45
2023-05-13T04:14:19.520Z,93869.95
2023-05-13T04:14:52.924Z,93869.30
2023-05-13T04:15:26.226Z,93869.99
2023-05-13T04:15:59.450Z,93872.66
2023-05-13T04:16:33.987Z,93872.58
2023-05-13T04:17:07.489Z,93875.23
2023-05-13T04:17:41.094Z,93874.80
2023-05-13T04:18:14.485Z,93879.17
2023-05-13T04:18:47.902Z,93876.37
2023-05-13T04:19:21.277Z,93875.10
2023-05-13T04:19:55.120Z,93875.31
2023-05-13T04:20:29.439Z,93877.89
2023-05-13T04:21:09.060Z,93878.36
2023-05-13T04:21:42.317Z,93879.23
2023-05-13T04:22:15.604Z,93881.07
2023-05-13T04:22:48.991Z,93875.59
2023-05-13T04:23:22.528Z,93877.95
2023-05-13T04:23:59.036Z,93878.52
2023-05-13T04:24:32.320Z,93877.05
2023-05-13T04:25:06.092Z,93876.79
2023-05-13T04:25:41.420Z,93878.52
2023-05-13T04:26:14.939Z,93880.45
2023-05-13T04:26:48.730Z,93878.33
2023-05-13T04:27:25.593Z,93879.99
2023-05-13T04:28:04.799Z,93883.60
2023-05-13T04:28:41.394Z,93886.58
2023-05-13T04:29:15.045Z,93884.69
2023-05-13T04:29:48.452Z,93886.45
2023-05-13T04:30:22.500Z,93883.89
2023-05-13T04:30:56.239Z,93889.21
2023-05-13T04:31:29.957Z,93882.35
2023-05-13T04:32:03.635Z,93884.27
2023-05-13T04:32:37.228Z,93886.39
2023-05-13T04:33:10.789Z,93891.23
2023-05-13T04:33:45.770Z,93891.23
2023-05-13T04:34:19.525Z,93891.08
2023-05-13T04:34:54.717Z,93889.89
2023-05-13T04:35:29.272Z,93894.69
2023-05-13T04:36:06.163Z,93893.00
2023-05-13T04:36:40.096Z,93892.58
2023-05-13T04:37:15.262Z,93898.17
2023-05-13T04:37:49.753Z,93893.96
2023-05-13T04:38:24.367Z,93892.38
2023-05-13T04:38:57.650Z,93897.20
2023-05-13T04:39:31.134Z,93892.44
2023-05-13T04:40:05.100Z,93892.27
2023-05-13T04:40:39.013Z,93895.55
2023-05-13T04:41:15.586Z,93894.39
2023-05-13T04:41:50.994Z,93894.86
2023-05-13T04:42:24.512Z,93896.68
2023-05-13T04:42:57.885Z,93894.72
2023-05-13T04:43:36.414Z,93896.83
2023-05-13T04:44:09.849Z,93894.60
2023-05-13T04:44:43.838Z,93896.88
2023-05-13T04:45:17.458Z,93897.44
2023-05-13T04:45:51.035Z,93902.18
2023-05-13T04:46:24.600Z,93898.98
2023-05-13T04:46:58.107Z,93899.85
2023-05-13T04:47:35.441Z,93893.98
2023-05-13T04:48:08.931Z,93897.48
2023-05-13T04:48:43.135Z,93897.52
2023-05-13T04:49:16.998Z,93898.61
2023-05-13T04:49:50.781Z,93900.32
2023-05-13T04:50:24.516Z,93901.21
2023-05-13T04:50:59.010Z,93901.13
2023-05-13T04:51:33.128Z,93903.21
2023-05-13T04:52:07.529Z,93906.09
2023-05-13T04:52:44.803Z,93900.56
2023-05-13T04:53:18.292Z,93899.61
2023-05-13T04:53:51.840Z,93901.59
2023-05-13T04:54:26.330Z,93902.39
2023-05-13T04:54:59.597Z,93905.09
2023-05-13T04:55:35.233Z,93904.64
2023-05-13T04:56:08.927Z,93907.25
2023-05-13T04:56:42.234Z,93908.81
2023-05-13T04:57:15.745Z,93907.77
2023-05-13T04:57:49.047Z,93907.22
2023-05-13T04:58:22.334Z,93908.77
2023-05-13T04:58:55.717Z,93906.99
2023-05-13T04:59:29.072Z,93905.86
2023-05-13T05:00:04.528Z,93911.31
2023-05-13T05:00:40.050Z,93910.56
2023-05-13T05:01:13.579Z,93910.54
2023-05-13T05:01:47.868Z,93911.05
2023-05-13T05:02:21.430Z,93906.95
2023-05-13T05:02:55.353Z,93910.20
2023-05-13T05:03:28.926Z,93910.13
2023-05-13T05:04:02.911Z,93912.38
2023-05-13T05:04:36.658Z,93910.59
2023-05-13T05:05:13.368Z,93915.09
2023-05-13T05:05:47.276Z,93912.44
2023-05-13T05:06:22.234Z,93912.34
2023-05-13T05:06:55.773Z,93909.98
2023-05-13T05:07:29.598Z,93912.35
2023-05-13T05:08:03.567Z,93914.73
2023-05-13T05:08:37.128Z,93915.96
2023-05-13T05:09:11.123Z,93912.59
2023-05-13T05:09:44.644Z,93915.44
2023-05-13T05:10:18.219Z,93914.94
2023-05-13T05:10:57.739Z,93914.05
2023-05-13T05:11:31.422Z,93914.35
2023-05-13T05:12:04.915Z,93915.59
2023-05-13T05:12:39.639Z,93915.77
2023-05-13T05:13:15.201Z,93918.55
2023-05-13T05:13:50.836Z,93917.05
2023-05-13T05:14:24.572Z,93916.96
2023-05-13T05:14:58.085Z,93918.93
2023-05-13T05:15:31.492Z,93919.08
2023-05-13T05:16:07.214Z,93917.78
2023-05-13T05:16:41.605Z,93913.50
2023-05-13T05:17:15.893Z,93920.31
2023-05-13T05:17:49.527Z,93914.92
2023-05-13T05:18:23.176Z,93915.89
2023-05-13T05:18:57.631Z,93917.25
2023-05-13T05:19:31.824Z,93918.95
2023-05-13T05:20:05.882Z,93918.28
2023-05-13T05:20:39.476Z,93920.60
2023-05-13T05:21:18.342Z,93919.70
2023-05-13T05:21:52.665Z,93922.44
2023-05-13T05:22:27.102Z,93920.45
2023-05-13T05:23:00.581Z,93923.38
2023-05-13T05:23:35.753Z,93921.77
2023-05-13T05:24:09.647Z,93921.49
2023-05-13T05:24:43.146Z,93919.65
2023-05-13T05:25:16.732Z,93922.52
2023-05-13T05:25:55.374Z,93922.66
2023-05-13T05:26:36.160Z,93919.67
2023-05-13T05:27:09.499Z,93923.25
2023-05-13T05:27:43.013Z,93922.69
2023-05-13T05:28:16.666Z,93920.29
2023-05-13T05:28:50.469Z,93924.45
2023-05-13T05:29:24.351Z,93924.59
2023-05-13T05:29:57.735Z,93922.98
2023-05-13T05:30:39.862Z,93923.50
2023-05-13T05:31:19.129Z,93923.29
2023-05-13T05:31:52.705Z,93927.39
2023-05-13T05:32:26.372Z,93923.02
2023-05-13T05:33:00.009Z,93923.42
2023-05-13T05:33:33.541Z,93923.30
2023-05-13T05:34:07.063Z,93920.39
2023-05-13T05:34:40.466Z,93922.52
2023-05-13T05:35:17.113Z,93923.34
2023-05-13T05:35:50.897Z,93923.41
2023-05-13T05:36:26.070Z,93921.70
2023-05-13T05:36:59.531Z,93924.34
2023-05-13T05:37:33.058Z,93918.85
2023-05-13T05:38:08.202Z,93919.58
2023-05-13T05:38:43.917Z,93919.73
2023-05-13T05:39:17.517Z,93918.56
2023-05-13T05:39:52.318Z,93919.46
2023-05-13T05:40:25.785Z,93916.52
2023-05-13T05:40:59.251Z,93918.52
2023-05-13T05:41:33.296Z,93921.21
2023-05-13T05:42:07.661Z,93919.27
2023-05-13T05:42:41.236Z,93918.68
2023-05-13T05:43:16.636Z,93919.91
2023-05-13T05:43:50.256Z,93920.95
2023-05-13T05:44:24.685Z,93921.54
2023-05-13T05:44:58.113Z,93918.52
2023-05-13T05:45:31.858Z,93920.46
2023-05-13T05:46:05.429Z,93918.51
2023-05-13T05:46:38.787Z,93923.02
2023-05-13T05:47:13.577Z,93918.11
2023-05-13T05:47:46.907Z,93922.08
2023-05-13T05:48:20.391Z,93919.04
2023-05-13T05:48:53.981Z,93923.86
2023-05-13T05:49:27.544Z,93918.42
2023-05-13T05:50:00.987Z,93921.30
2023-05-13T05:50:35.069Z,93918.70
2023-05-13T05:51:09.910Z,93918.45
2023-05-13T05:51:43.371Z,93920.13
2023-05-13T05:52:16.722Z,93918.20
2023-05-13T05:52:50.329Z,93918.44
2023-05-13T05:53:23.781Z,93923.33
2023-05-13T05:53:57.269Z,93923.40
2023-05-13T05:54:30.994Z,93925.02
2023-05-13T05:55:07.430Z,93924.36
2023-05-13T05:55:40.862Z,93923.52
2023-05-13T05:56:14.249Z,93923.11
2023-05-13T05:56:48.390Z,93924.02
2023-05-13T05:57:21.705Z,93921.15
2023-05-13T05:57:56.487Z,93923.31
2023-05-13T05:58:30.280Z,93921.23
2023-05-13T05:59:03.591Z,93920.45
2023-05-13T05:59:37.222Z,93916.26
2023-05-13T06:00:11.215Z,93923.00
2023-05-13T06:00:50.295Z,93918.96
2023-05-13T06:01:23.743Z,93918.38
2023-05-13T06:01:57.379Z,93920.58
2023-05-13T06:02:31.096Z,93914.70
2023-05-13T06:03:05.019Z,93920.24
2023-05-13T06:03:38.741Z,93922.29
2023-05-13T06:04:12.441Z,93921.53
2023-05-13T06:04:45.946Z,93919.55
2023-05-13T06:05:20.105Z,93916.83
2023-05-13T06:05:54.233Z,93917.99
2023-05-13T06:06:27.798Z,93922.26
2023-05-13T06:07:01.362Z,93915.95
2023-05-13T06:07:34.935Z,93922.38
2023-05-13T06:08:08.242Z,93921.42
2023-05-13T06:08:41.684Z,93919.08
2023-05-13T06:09:14.969Z,93917.95
2023-05-13T06:09:48.283Z,93921.06
2023-05-13T06:10:21.993Z,93916.13
2023-05-13T06:10:56.994Z,93914.95
2023-05-13T06:11:30.408Z,93918.78
2023-05-13T06:12:04.076Z,93918.45
2023-05-13T06:12:37.734Z,93923.38
2023-05-13T06:13:11.154Z,93918.47
2023-05-13T06:13:44.560Z,93917.61
2023-05-13T06:14:17.960Z,93920.67
2023-05-13T06:14:51.527Z,93920.64
2023-05-13T06:15:24.794Z,93917.36
2023-05-13T06:15:58.204Z,93918.11
2023-05-13T06:16:31.792Z,93919.80
2023-05-13T06:17:06.527Z,93917.02
2023-05-13T06:17:40.260Z,93917.71
2023-05-13T06:18:13.649Z,93914.03
2023-05-13T06:18:46.892Z,93915.38
2023-05-13T06:19:20.271Z,93915.12
2023-05-13T06:19:53.539Z,93913.42
2023-05-13T06:20:26.730Z,93914.48
2023-05-13T06:20:59.832Z,93913.31
2023-05-13T06:21:33.122Z,93916.92
2023-05-13T06:22:06.370Z,93917.66
2023-05-13T06:22:40.126Z,93914.77
2023-05-13T06:23:15.185Z,93914.08
2023-05-13T06:23:48.387Z,93916.05
2023-05-13T06:24:21.803Z,93919.21
2023-05-13T06:24:54.967Z,93919.94
2023-05-13T06:25:28.202Z,93915.05
2023-05-13T06:26:01.400Z,93919.10
2023-05-13T06:26:34.569Z,93920.83
2023-05-13T06:27:08.305Z,93920.33
2023-05-13T06:27:42.001Z,93918.98
2023-05-13T06:28:15.214Z,93922.77
2023-05-13T06:28:48.486Z,93919.05
2023-05-13T06:29:21.722Z,93921.55
2023-05-13T06:29:54.882Z,93921.55
2023-05-13T06:30:28.254Z,93924.13
2023-05-13T06:31:01.544Z,93922.31
2023-05-13T06:31:34.753Z,93927.14
2023-05-13T06:32:08.516Z,93925.30
2023-05-13T06:32:50.373Z,93929.34
2023-05-13T06:33:30.866Z,93924.96
2023-05-13T06:34:04.148Z,93926.18
2023-05-13T06:34:40.639Z,93929.44
2023-05-13T06:35:13.825Z,93924.98
2023-05-13T06:35:49.743Z,93930.18
2023-05-13T06:36:24.530Z,93927.59
2023-05-13T06:36:57.997Z,93931.15
2023-05-13T06:37:31.233Z,93927.94
2023-05-13T06:38:04.482Z,93931.05
2023-05-13T06:38:37.703Z,93927.11
2023-05-13T06:39:13.875Z,93930.27
2023-05-13T06:39:46.939Z,93928.60
2023-05-13T06:40:20.657Z,93929.58
2023-05-13T06:40:54.084Z,93927.92
2023-05-13T06:41:33.157Z,93926.30
2023-05-13T06:42:14.137Z,93927.55
2023-05-13T06:42:51.220Z,93929.71
2023-05-13T06:43:33.947Z,93926.88
2023-05-13T06:44:17.620Z,93930.99
2023-05-13T06:44:52.821Z,93927.45
2023-05-13T06:45:32.524Z,93929.81
2023-05-13T06:46:05.925Z,93929.19
2023-05-13T06:46:39.380Z,93933.18
2023-05-13T06:47:16.286Z,93932.33
2023-05-13T06:47:53.397Z,93929.88
2023-05-13T06:48:27.092Z,93931.55